Cannon Beach, OR

2:05 PM PST on February 14, 2016 (GMT -0800)
Ocean Vista Dr | | Change Station
CLOSE
Current Station
Personal Weather Station
Location: Seaside, OR
Elevation: 16 ft
Nearby Weather Stations

Elev 16 ft 45.98 °N, 123.93 °W | Updated 2 seconds ago

Fog
Fog
53.4 °F
Feels Like 53.4 °F
N
5.7
Wind Variable Wind from West
Gusts 8.1 mph

Today
High -- | Low -- °F
--% Chance of Precip.
Yesterday
High -- | Low -- °F
Precip. -- in
Pressure 30.22 in
Visibility 1.0 miles
Clouds Overcast 300 ft
Dew Point 52 °F
Humidity 96%
Rainfall 0.54 in
Snow Depth Not available.
7:20 AM 5:40 PM
Waxing Crescent, 45% visible
METAR KAST 142155Z AUTO 23009KT 1SM BR OVC003 12/11 A3022 RMK AO2 RAE37 SLP233 P0002 T01170111
Pressure 30.22 in
Visibility 1.0 miles
Clouds Overcast 300 ft
Dew Point 52 °F
Humidity 96%
Rainfall 0.54 in
Snow Depth Not available.
7:20 AM 5:40 PM
Waxing Crescent, 45% visible
METAR KAST 142155Z AUTO 23009KT 1SM BR OVC003 12/11 A3022 RMK AO2 RAE37 SLP233 P0002 T01170111

10-Day Weather Forecast

Almanac

Astronomy

Feb. 14, 2016 Rise Set
Actual Time
Civil Twilight
Nautical Twilight
Astronomical Twilight
Moon
Length of Visible Light
Length of Day
Tomorrow will be .
, % of the Moon is Illuminated

Today's Extremes

State Highs State Lows

Community

WunderPhotos

Upload Photos

1,892,890 photos uploaded!

WunderBlog® & News

Nearby

Air Quality

  Air Quality AQ Index Pollutant
Not available.

Snow Depth

Station Depth Elevation

Earthquake Activity

City Distance Mag. Time & Date
Minimum magnitude displayed is 2.5.

Coastal Water Temperatures

Place Temperature

Stations

Nearby Weather Stations

Station Location Temp. Windchill Dew Point Humidity Wind Precip. Elev Updated Type
                   

Watches & Warnings

There are currently no watches in effect.